sensor_id;sensor_type;location;lat;lon;timestamp;P1;durP1;ratioP1;P2;durP2;ratioP2
41799;SDS011;27468;47.460;19.034;2023-06-04T00:02:24;2.08;;;0.93;;
41799;SDS011;27468;47.460;19.034;2023-06-04T00:04:50;1.30;;;0.88;;
41799;SDS011;27468;47.460;19.034;2023-06-04T00:07:16;2.08;;;0.90;;
41799;SDS011;27468;47.460;19.034;2023-06-04T00:09:41;2.13;;;1.17;;
41799;SDS011;27468;47.460;19.034;2023-06-04T00:12:07;1.33;;;0.85;;
41799;SDS011;27468;47.460;19.034;2023-06-04T00:14:33;1.77;;;0.98;;
41799;SDS011;27468;47.460;19.034;2023-06-04T00:16:58;3.50;;;0.90;;
41799;SDS011;27468;47.460;19.034;2023-06-04T00:19:23;1.98;;;0.90;;
41799;SDS011;27468;47.460;19.034;2023-06-04T00:21:49;1.65;;;0.68;;
41799;SDS011;27468;47.460;19.034;2023-06-04T00:24:15;4.82;;;0.90;;
41799;SDS011;27468;47.460;19.034;2023-06-04T00:26:41;2.20;;;0.80;;
41799;SDS011;27468;47.460;19.034;2023-06-04T00:29:06;1.60;;;0.80;;
41799;SDS011;27468;47.460;19.034;2023-06-04T00:31:32;1.85;;;0.63;;
41799;SDS011;27468;47.460;19.034;2023-06-04T00:33:57;2.05;;;0.82;;
41799;SDS011;27468;47.460;19.034;2023-06-04T00:36:22;1.80;;;0.80;;
41799;SDS011;27468;47.460;19.034;2023-06-04T00:38:48;1.20;;;0.80;;
41799;SDS011;27468;47.460;19.034;2023-06-04T00:41:13;1.55;;;0.93;;
41799;SDS011;27468;47.460;19.034;2023-06-04T00:43:39;1.55;;;1.10;;
41799;SDS011;27468;47.460;19.034;2023-06-04T00:46:05;1.42;;;0.63;;
41799;SDS011;27468;47.460;19.034;2023-06-04T00:48:31;1.50;;;1.15;;
41799;SDS011;27468;47.460;19.034;2023-06-04T00:50:57;2.42;;;0.82;;
41799;SDS011;27468;47.460;19.034;2023-06-04T00:53:24;1.08;;;0.70;;
41799;SDS011;27468;47.460;19.034;2023-06-04T00:55:50;2.10;;;0.80;;
41799;SDS011;27468;47.460;19.034;2023-06-04T00:58:16;1.17;;;0.80;;
41799;SDS011;27468;47.460;19.034;2023-06-04T01:00:45;2.63;;;0.90;;
41799;SDS011;27468;47.460;19.034;2023-06-04T01:03:13;1.00;;;0.82;;
41799;SDS011;27468;47.460;19.034;2023-06-04T01:08:24;1.80;;;0.85;;
41799;SDS011;27468;47.460;19.034;2023-06-04T01:10:54;1.08;;;0.80;;
41799;SDS011;27468;47.460;19.034;2023-06-04T01:13:21;2.40;;;0.80;;
41799;SDS011;27468;47.460;19.034;2023-06-04T01:15:47;1.30;;;0.80;;
41799;SDS011;27468;47.460;19.034;2023-06-04T01:18:13;1.08;;;0.63;;
41799;SDS011;27468;47.460;19.034;2023-06-04T01:20:53;0.70;;;0.60;;
41799;SDS011;27468;47.460;19.034;2023-06-04T01:26:32;1.27;;;0.65;;
41799;SDS011;27468;47.460;19.034;2023-06-04T01:28:58;2.17;;;0.88;;
41799;SDS011;27468;47.460;19.034;2023-06-04T01:31:26;2.90;;;0.80;;
41799;SDS011;27468;47.460;19.034;2023-06-04T01:33:53;1.48;;;0.60;;
41799;SDS011;27468;47.460;19.034;2023-06-04T01:36:20;2.13;;;0.88;;
41799;SDS011;27468;47.460;19.034;2023-06-04T01:38:45;0.75;;;0.60;;
41799;SDS011;27468;47.460;19.034;2023-06-04T01:41:11;0.85;;;0.77;;
41799;SDS011;27468;47.460;19.034;2023-06-04T01:43:36;3.30;;;1.10;;
41799;SDS011;27468;47.460;19.034;2023-06-04T01:46:02;1.05;;;0.73;;
41799;SDS011;27468;47.460;19.034;2023-06-04T01:48:28;0.50;;;0.50;;
41799;SDS011;27468;47.460;19.034;2023-06-04T01:50:54;2.40;;;0.80;;
41799;SDS011;27468;47.460;19.034;2023-06-04T01:53:20;1.48;;;0.70;;
41799;SDS011;27468;47.460;19.034;2023-06-04T01:55:46;1.00;;;0.50;;
41799;SDS011;27468;47.460;19.034;2023-06-04T01:58:14;1.42;;;0.70;;
41799;SDS011;27468;47.460;19.034;2023-06-04T02:00:42;1.45;;;0.68;;
41799;SDS011;27468;47.460;19.034;2023-06-04T02:03:09;1.05;;;0.73;;
41799;SDS011;27468;47.460;19.034;2023-06-04T02:05:35;1.30;;;0.60;;
41799;SDS011;27468;47.460;19.034;2023-06-04T02:08:01;1.10;;;0.70;;
41799;SDS011;27468;47.460;19.034;2023-06-04T02:10:29;1.73;;;0.80;;
41799;SDS011;27468;47.460;19.034;2023-06-04T02:12:59;1.33;;;0.65;;
41799;SDS011;27468;47.460;19.034;2023-06-04T02:15:27;3.55;;;0.98;;
41799;SDS011;27468;47.460;19.034;2023-06-04T02:17:54;1.60;;;0.77;;
41799;SDS011;27468;47.460;19.034;2023-06-04T02:20:23;1.02;;;0.60;;
41799;SDS011;27468;47.460;19.034;2023-06-04T02:22:48;2.45;;;0.93;;
41799;SDS011;27468;47.460;19.034;2023-06-04T02:25:14;1.58;;;0.70;;
41799;SDS011;27468;47.460;19.034;2023-06-04T02:27:40;1.83;;;0.70;;
41799;SDS011;27468;47.460;19.034;2023-06-04T02:30:06;1.00;;;0.68;;
41799;SDS011;27468;47.460;19.034;2023-06-04T02:32:32;2.05;;;0.68;;
41799;SDS011;27468;47.460;19.034;2023-06-04T02:34:58;1.23;;;0.73;;
41799;SDS011;27468;47.460;19.034;2023-06-04T02:37:24;1.33;;;0.60;;
41799;SDS011;27468;47.460;19.034;2023-06-04T02:39:49;1.30;;;0.82;;
41799;SDS011;27468;47.460;19.034;2023-06-04T02:42:15;1.17;;;0.70;;
41799;SDS011;27468;47.460;19.034;2023-06-04T02:44:40;0.90;;;0.52;;
41799;SDS011;27468;47.460;19.034;2023-06-04T02:47:05;2.22;;;0.82;;
41799;SDS011;27468;47.460;19.034;2023-06-04T02:49:31;0.80;;;0.70;;
41799;SDS011;27468;47.460;19.034;2023-06-04T02:51:56;1.25;;;0.60;;
41799;SDS011;27468;47.460;19.034;2023-06-04T02:54:22;0.73;;;0.63;;
41799;SDS011;27468;47.460;19.034;2023-06-04T02:56:47;1.27;;;0.80;;
41799;SDS011;27468;47.460;19.034;2023-06-04T02:59:14;1.20;;;0.60;;
41799;SDS011;27468;47.460;19.034;2023-06-04T03:01:39;1.73;;;0.70;;
41799;SDS011;27468;47.460;19.034;2023-06-04T03:04:05;0.82;;;0.60;;
41799;SDS011;27468;47.460;19.034;2023-06-04T03:06:35;1.95;;;0.70;;
41799;SDS011;27468;47.460;19.034;2023-06-04T03:09:03;0.93;;;0.77;;
41799;SDS011;27468;47.460;19.034;2023-06-04T03:11:29;3.45;;;0.80;;
41799;SDS011;27468;47.460;19.034;2023-06-04T03:13:54;1.23;;;0.60;;
41799;SDS011;27468;47.460;19.034;2023-06-04T03:16:20;1.13;;;0.60;;
41799;SDS011;27468;47.460;19.034;2023-06-04T03:18:46;1.50;;;0.73;;
41799;SDS011;27468;47.460;19.034;2023-06-04T03:21:11;1.67;;;0.70;;
41799;SDS011;27468;47.460;19.034;2023-06-04T03:23:38;1.17;;;0.60;;
41799;SDS011;27468;47.460;19.034;2023-06-04T03:26:04;3.35;;;0.80;;
41799;SDS011;27468;47.460;19.034;2023-06-04T03:28:30;1.08;;;0.70;;
41799;SDS011;27468;47.460;19.034;2023-06-04T03:30:57;1.40;;;0.70;;
41799;SDS011;27468;47.460;19.034;2023-06-04T03:33:23;1.40;;;0.73;;
41799;SDS011;27468;47.460;19.034;2023-06-04T03:35:52;1.30;;;0.90;;
41799;SDS011;27468;47.460;19.034;2023-06-04T03:38:18;1.33;;;0.70;;
41799;SDS011;27468;47.460;19.034;2023-06-04T03:40:45;1.27;;;0.68;;
41799;SDS011;27468;47.460;19.034;2023-06-04T03:43:12;1.90;;;0.90;;
41799;SDS011;27468;47.460;19.034;2023-06-04T03:45:37;1.58;;;0.80;;
41799;SDS011;27468;47.460;19.034;2023-06-04T03:48:03;1.10;;;0.77;;
41799;SDS011;27468;47.460;19.034;2023-06-04T03:50:28;1.35;;;0.70;;
41799;SDS011;27468;47.460;19.034;2023-06-04T03:52:55;1.65;;;0.90;;
41799;SDS011;27468;47.460;19.034;2023-06-04T03:55:20;0.93;;;0.52;;
41799;SDS011;27468;47.460;19.034;2023-06-04T03:57:46;1.55;;;0.70;;
41799;SDS011;27468;47.460;19.034;2023-06-04T04:00:11;2.53;;;1.15;;
41799;SDS011;27468;47.460;19.034;2023-06-04T04:02:38;1.60;;;1.05;;
41799;SDS011;27468;47.460;19.034;2023-06-04T04:05:05;1.15;;;0.70;;
41799;SDS011;27468;47.460;19.034;2023-06-04T04:07:30;0.57;;;0.45;;
41799;SDS011;27468;47.460;19.034;2023-06-04T04:09:56;1.38;;;0.80;;
41799;SDS011;27468;47.460;19.034;2023-06-04T04:12:21;1.02;;;0.70;;
41799;SDS011;27468;47.460;19.034;2023-06-04T04:14:47;0.93;;;0.73;;
41799;SDS011;27468;47.460;19.034;2023-06-04T04:17:13;1.70;;;0.80;;
41799;SDS011;27468;47.460;19.034;2023-06-04T04:19:39;1.85;;;0.90;;
41799;SDS011;27468;47.460;19.034;2023-06-04T04:22:04;1.15;;;0.63;;
41799;SDS011;27468;47.460;19.034;2023-06-04T04:24:31;1.25;;;0.60;;
41799;SDS011;27468;47.460;19.034;2023-06-04T04:26:59;1.65;;;0.73;;
41799;SDS011;27468;47.460;19.034;2023-06-04T04:29:25;2.20;;;0.60;;
41799;SDS011;27468;47.460;19.034;2023-06-04T04:31:51;1.38;;;0.90;;
41799;SDS011;27468;47.460;19.034;2023-06-04T04:34:17;3.10;;;0.70;;
41799;SDS011;27468;47.460;19.034;2023-06-04T04:36:46;1.08;;;0.70;;
41799;SDS011;27468;47.460;19.034;2023-06-04T04:39:17;1.67;;;0.90;;
41799;SDS011;27468;47.460;19.034;2023-06-04T04:41:44;0.98;;;0.77;;
41799;SDS011;27468;47.460;19.034;2023-06-04T04:44:10;3.70;;;1.10;;
41799;SDS011;27468;47.460;19.034;2023-06-04T04:46:35;1.77;;;1.00;;
41799;SDS011;27468;47.460;19.034;2023-06-04T04:49:00;1.40;;;0.88;;
41799;SDS011;27468;47.460;19.034;2023-06-04T04:51:26;1.35;;;0.90;;
41799;SDS011;27468;47.460;19.034;2023-06-04T04:53:51;1.55;;;0.88;;
41799;SDS011;27468;47.460;19.034;2023-06-04T04:56:16;1.77;;;0.60;;
41799;SDS011;27468;47.460;19.034;2023-06-04T04:58:42;1.02;;;0.80;;
41799;SDS011;27468;47.460;19.034;2023-06-04T05:01:07;1.10;;;0.90;;
41799;SDS011;27468;47.460;19.034;2023-06-04T05:03:33;1.42;;;0.65;;
41799;SDS011;27468;47.460;19.034;2023-06-04T05:05:58;2.58;;;0.80;;
41799;SDS011;27468;47.460;19.034;2023-06-04T05:08:23;1.73;;;1.00;;
41799;SDS011;27468;47.460;19.034;2023-06-04T05:10:50;1.02;;;0.90;;
41799;SDS011;27468;47.460;19.034;2023-06-04T05:13:15;2.30;;;0.80;;
41799;SDS011;27468;47.460;19.034;2023-06-04T05:15:42;1.45;;;0.75;;
41799;SDS011;27468;47.460;19.034;2023-06-04T05:18:08;1.83;;;0.82;;
41799;SDS011;27468;47.460;19.034;2023-06-04T05:20:34;1.88;;;0.88;;
41799;SDS011;27468;47.460;19.034;2023-06-04T05:23:02;1.20;;;0.90;;
41799;SDS011;27468;47.460;19.034;2023-06-04T05:25:29;1.80;;;1.00;;
41799;SDS011;27468;47.460;19.034;2023-06-04T05:27:56;1.42;;;0.73;;
41799;SDS011;27468;47.460;19.034;2023-06-04T05:30:21;2.65;;;1.45;;
41799;SDS011;27468;47.460;19.034;2023-06-04T05:32:47;2.17;;;0.70;;
41799;SDS011;27468;47.460;19.034;2023-06-04T05:35:15;1.15;;;0.95;;
41799;SDS011;27468;47.460;19.034;2023-06-04T05:37:41;1.90;;;0.80;;
41799;SDS011;27468;47.460;19.034;2023-06-04T05:40:10;1.38;;;0.90;;
41799;SDS011;27468;47.460;19.034;2023-06-04T05:42:36;2.42;;;0.77;;
41799;SDS011;27468;47.460;19.034;2023-06-04T05:45:02;2.15;;;0.85;;
41799;SDS011;27468;47.460;19.034;2023-06-04T05:47:28;1.75;;;0.93;;
41799;SDS011;27468;47.460;19.034;2023-06-04T05:49:54;1.63;;;0.60;;
41799;SDS011;27468;47.460;19.034;2023-06-04T05:52:20;0.88;;;0.75;;
41799;SDS011;27468;47.460;19.034;2023-06-04T05:54:45;2.25;;;1.13;;
41799;SDS011;27468;47.460;19.034;2023-06-04T05:57:11;1.38;;;0.90;;
41799;SDS011;27468;47.460;19.034;2023-06-04T05:59:36;1.35;;;0.70;;
41799;SDS011;27468;47.460;19.034;2023-06-04T06:02:01;1.13;;;0.70;;
41799;SDS011;27468;47.460;19.034;2023-06-04T06:04:27;1.85;;;0.70;;
41799;SDS011;27468;47.460;19.034;2023-06-04T06:06:53;1.00;;;0.57;;
41799;SDS011;27468;47.460;19.034;2023-06-04T06:09:19;1.00;;;0.60;;
41799;SDS011;27468;47.460;19.034;2023-06-04T06:11:44;1.52;;;0.85;;
41799;SDS011;27468;47.460;19.034;2023-06-04T06:14:10;1.75;;;0.70;;
41799;SDS011;27468;47.460;19.034;2023-06-04T06:16:35;0.98;;;0.73;;
41799;SDS011;27468;47.460;19.034;2023-06-04T06:19:01;1.10;;;0.68;;
41799;SDS011;27468;47.460;19.034;2023-06-04T06:21:27;10.32;;;1.23;;
41799;SDS011;27468;47.460;19.034;2023-06-04T06:23:53;1.90;;;0.90;;
41799;SDS011;27468;47.460;19.034;2023-06-04T06:26:18;1.65;;;0.90;;
41799;SDS011;27468;47.460;19.034;2023-06-04T06:28:44;2.05;;;0.77;;
41799;SDS011;27468;47.460;19.034;2023-06-04T06:31:09;1.55;;;0.90;;
41799;SDS011;27468;47.460;19.034;2023-06-04T06:33:35;2.00;;;0.85;;
41799;SDS011;27468;47.460;19.034;2023-06-04T06:36:05;1.45;;;0.93;;
41799;SDS011;27468;47.460;19.034;2023-06-04T06:38:32;1.55;;;0.70;;
41799;SDS011;27468;47.460;19.034;2023-06-04T06:40:57;1.20;;;0.80;;
41799;SDS011;27468;47.460;19.034;2023-06-04T06:43:23;1.23;;;0.60;;
41799;SDS011;27468;47.460;19.034;2023-06-04T06:45:48;1.25;;;0.77;;
41799;SDS011;27468;47.460;19.034;2023-06-04T06:48:13;1.60;;;0.93;;
41799;SDS011;27468;47.460;19.034;2023-06-04T06:50:39;2.40;;;0.95;;
41799;SDS011;27468;47.460;19.034;2023-06-04T06:53:04;1.88;;;0.80;;
41799;SDS011;27468;47.460;19.034;2023-06-04T06:55:30;2.55;;;0.75;;
41799;SDS011;27468;47.460;19.034;2023-06-04T06:57:55;1.40;;;0.73;;
41799;SDS011;27468;47.460;19.034;2023-06-04T07:00:21;1.27;;;0.80;;
41799;SDS011;27468;47.460;19.034;2023-06-04T07:02:46;1.67;;;1.00;;
41799;SDS011;27468;47.460;19.034;2023-06-04T07:05:13;3.72;;;1.00;;
41799;SDS011;27468;47.460;19.034;2023-06-04T07:07:40;0.98;;;0.90;;
41799;SDS011;27468;47.460;19.034;2023-06-04T07:10:06;1.48;;;0.88;;
41799;SDS011;27468;47.460;19.034;2023-06-04T07:12:32;1.25;;;0.75;;
41799;SDS011;27468;47.460;19.034;2023-06-04T07:14:57;1.85;;;0.95;;
41799;SDS011;27468;47.460;19.034;2023-06-04T07:17:23;1.10;;;0.90;;
41799;SDS011;27468;47.460;19.034;2023-06-04T07:19:48;1.50;;;1.08;;
41799;SDS011;27468;47.460;19.034;2023-06-04T07:22:13;3.33;;;0.80;;
41799;SDS011;27468;47.460;19.034;2023-06-04T07:24:41;2.10;;;1.02;;
41799;SDS011;27468;47.460;19.034;2023-06-04T07:27:13;1.05;;;0.88;;
41799;SDS011;27468;47.460;19.034;2023-06-04T07:29:39;2.67;;;1.00;;
41799;SDS011;27468;47.460;19.034;2023-06-04T07:32:07;2.28;;;0.80;;
41799;SDS011;27468;47.460;19.034;2023-06-04T07:34:33;2.25;;;0.90;;
41799;SDS011;27468;47.460;19.034;2023-06-04T07:36:58;1.27;;;0.68;;
41799;SDS011;27468;47.460;19.034;2023-06-04T07:39:23;1.02;;;0.77;;
41799;SDS011;27468;47.460;19.034;2023-06-04T07:41:49;2.08;;;1.10;;
41799;SDS011;27468;47.460;19.034;2023-06-04T07:44:14;2.28;;;0.90;;
41799;SDS011;27468;47.460;19.034;2023-06-04T07:46:40;3.67;;;0.90;;
41799;SDS011;27468;47.460;19.034;2023-06-04T07:49:05;1.17;;;0.80;;
41799;SDS011;27468;47.460;19.034;2023-06-04T07:51:31;1.20;;;0.90;;
41799;SDS011;27468;47.460;19.034;2023-06-04T07:53:56;2.38;;;0.90;;
41799;SDS011;27468;47.460;19.034;2023-06-04T07:56:22;2.00;;;0.82;;
41799;SDS011;27468;47.460;19.034;2023-06-04T07:58:47;1.58;;;0.70;;
41799;SDS011;27468;47.460;19.034;2023-06-04T08:01:13;1.98;;;0.73;;
41799;SDS011;27468;47.460;19.034;2023-06-04T08:03:38;1.50;;;1.10;;
41799;SDS011;27468;47.460;19.034;2023-06-04T08:06:05;1.20;;;0.65;;
41799;SDS011;27468;47.460;19.034;2023-06-04T08:08:31;1.83;;;0.85;;
41799;SDS011;27468;47.460;19.034;2023-06-04T08:10:58;0.85;;;0.80;;
41799;SDS011;27468;47.460;19.034;2023-06-04T08:13:25;2.25;;;0.80;;
41799;SDS011;27468;47.460;19.034;2023-06-04T08:15:50;1.33;;;0.65;;
41799;SDS011;27468;47.460;19.034;2023-06-04T08:18:15;1.73;;;0.70;;
41799;SDS011;27468;47.460;19.034;2023-06-04T08:20:41;1.63;;;0.82;;
41799;SDS011;27468;47.460;19.034;2023-06-04T08:23:06;1.80;;;0.80;;
41799;SDS011;27468;47.460;19.034;2023-06-04T08:25:32;1.73;;;0.90;;
41799;SDS011;27468;47.460;19.034;2023-06-04T08:27:57;1.55;;;0.80;;
41799;SDS011;27468;47.460;19.034;2023-06-04T08:30:23;2.42;;;0.80;;
41799;SDS011;27468;47.460;19.034;2023-06-04T08:32:48;0.88;;;0.50;;
41799;SDS011;27468;47.460;19.034;2023-06-04T08:35:14;1.10;;;0.90;;
41799;SDS011;27468;47.460;19.034;2023-06-04T08:37:39;2.10;;;1.35;;
41799;SDS011;27468;47.460;19.034;2023-06-04T08:40:05;1.23;;;0.90;;
41799;SDS011;27468;47.460;19.034;2023-06-04T08:42:35;1.35;;;0.80;;
41799;SDS011;27468;47.460;19.034;2023-06-04T08:45:06;1.55;;;1.00;;
41799;SDS011;27468;47.460;19.034;2023-06-04T08:47:36;2.60;;;0.77;;
41799;SDS011;27468;47.460;19.034;2023-06-04T08:50:03;2.80;;;0.80;;
41799;SDS011;27468;47.460;19.034;2023-06-04T08:52:33;2.15;;;0.70;;
41799;SDS011;27468;47.460;19.034;2023-06-04T08:54:59;1.10;;;0.82;;
41799;SDS011;27468;47.460;19.034;2023-06-04T08:57:26;1.88;;;0.80;;
41799;SDS011;27468;47.460;19.034;2023-06-04T08:59:51;1.30;;;0.80;;
41799;SDS011;27468;47.460;19.034;2023-06-04T09:02:17;1.33;;;0.90;;
41799;SDS011;27468;47.460;19.034;2023-06-04T09:04:43;1.30;;;0.88;;
41799;SDS011;27468;47.460;19.034;2023-06-04T09:07:12;1.42;;;0.70;;
41799;SDS011;27468;47.460;19.034;2023-06-04T09:09:39;1.77;;;1.10;;
41799;SDS011;27468;47.460;19.034;2023-06-04T09:12:05;1.27;;;0.88;;
41799;SDS011;27468;47.460;19.034;2023-06-04T09:14:35;0.90;;;0.70;;
41799;SDS011;27468;47.460;19.034;2023-06-04T09:17:00;1.60;;;0.82;;
41799;SDS011;27468;47.460;19.034;2023-06-04T09:19:26;2.25;;;1.23;;
41799;SDS011;27468;47.460;19.034;2023-06-04T09:21:52;3.33;;;1.02;;
41799;SDS011;27468;47.460;19.034;2023-06-04T09:24:23;3.22;;;1.05;;
41799;SDS011;27468;47.460;19.034;2023-06-04T09:26:50;1.20;;;0.85;;
41799;SDS011;27468;47.460;19.034;2023-06-04T09:29:16;2.63;;;0.90;;
41799;SDS011;27468;47.460;19.034;2023-06-04T09:31:45;1.63;;;1.00;;
41799;SDS011;27468;47.460;19.034;2023-06-04T09:34:12;1.33;;;0.98;;
41799;SDS011;27468;47.460;19.034;2023-06-04T09:36:38;2.38;;;1.02;;
41799;SDS011;27468;47.460;19.034;2023-06-04T09:39:13;2.00;;;0.90;;
41799;SDS011;27468;47.460;19.034;2023-06-04T09:41:40;1.83;;;1.00;;
41799;SDS011;27468;47.460;19.034;2023-06-04T09:44:05;1.95;;;0.90;;
41799;SDS011;27468;47.460;19.034;2023-06-04T09:46:31;1.05;;;0.90;;
41799;SDS011;27468;47.460;19.034;2023-06-04T09:49:00;0.90;;;0.60;;
41799;SDS011;27468;47.460;19.034;2023-06-04T09:51:27;1.30;;;0.82;;
41799;SDS011;27468;47.460;19.034;2023-06-04T09:53:54;1.60;;;1.00;;
41799;SDS011;27468;47.460;19.034;2023-06-04T09:56:21;1.90;;;0.90;;
41799;SDS011;27468;47.460;19.034;2023-06-04T09:58:48;3.45;;;1.38;;
41799;SDS011;27468;47.460;19.034;2023-06-04T10:01:14;3.03;;;0.98;;
41799;SDS011;27468;47.460;19.034;2023-06-04T10:03:41;1.38;;;0.80;;
41799;SDS011;27468;47.460;19.034;2023-06-04T10:06:11;1.37;;;1.00;;
41799;SDS011;27468;47.460;19.034;2023-06-04T10:08:40;1.48;;;0.90;;
41799;SDS011;27468;47.460;19.034;2023-06-04T10:11:07;1.85;;;1.10;;
41799;SDS011;27468;47.460;19.034;2023-06-04T10:13:54;1.20;;;0.90;;
41799;SDS011;27468;47.460;19.034;2023-06-04T10:16:25;2.17;;;1.02;;
41799;SDS011;27468;47.460;19.034;2023-06-04T10:18:54;1.42;;;0.80;;
41799;SDS011;27468;47.460;19.034;2023-06-04T10:21:21;1.48;;;0.90;;
41799;SDS011;27468;47.460;19.034;2023-06-04T10:23:48;1.63;;;0.68;;
41799;SDS011;27468;47.460;19.034;2023-06-04T10:26:15;1.42;;;0.90;;
41799;SDS011;27468;47.460;19.034;2023-06-04T10:28:41;2.15;;;0.90;;
41799;SDS011;27468;47.460;19.034;2023-06-04T10:31:10;1.05;;;0.80;;
41799;SDS011;27468;47.460;19.034;2023-06-04T10:33:37;1.98;;;1.02;;
41799;SDS011;27468;47.460;19.034;2023-06-04T10:36:19;1.40;;;0.70;;
41799;SDS011;27468;47.460;19.034;2023-06-04T10:38:49;2.33;;;0.70;;
41799;SDS011;27468;47.460;19.034;2023-06-04T10:41:18;1.95;;;0.93;;
41799;SDS011;27468;47.460;19.034;2023-06-04T10:43:48;1.88;;;0.70;;
41799;SDS011;27468;47.460;19.034;2023-06-04T10:46:15;1.02;;;0.60;;
41799;SDS011;27468;47.460;19.034;2023-06-04T10:48:51;2.10;;;0.90;;
41799;SDS011;27468;47.460;19.034;2023-06-04T10:51:31;0.70;;;0.70;;
41799;SDS011;27468;47.460;19.034;2023-06-04T10:54:01;1.77;;;0.90;;
41799;SDS011;27468;47.460;19.034;2023-06-04T10:56:31;0.98;;;0.65;;
41799;SDS011;27468;47.460;19.034;2023-06-04T10:58:58;1.85;;;0.70;;
41799;SDS011;27468;47.460;19.034;2023-06-04T11:01:28;0.98;;;0.70;;
41799;SDS011;27468;47.460;19.034;2023-06-04T11:03:56;1.25;;;0.63;;
41799;SDS011;27468;47.460;19.034;2023-06-04T11:06:22;2.88;;;0.90;;
41799;SDS011;27468;47.460;19.034;2023-06-04T11:09:01;1.63;;;0.88;;
41799;SDS011;27468;47.460;19.034;2023-06-04T11:11:31;1.58;;;0.95;;
41799;SDS011;27468;47.460;19.034;2023-06-04T11:14:06;1.83;;;0.90;;
41799;SDS011;27468;47.460;19.034;2023-06-04T11:16:38;2.28;;;1.00;;
41799;SDS011;27468;47.460;19.034;2023-06-04T11:19:04;3.22;;;0.77;;
41799;SDS011;27468;47.460;19.034;2023-06-04T11:21:29;0.98;;;0.70;;
41799;SDS011;27468;47.460;19.034;2023-06-04T11:23:57;0.82;;;0.65;;
41799;SDS011;27468;47.460;19.034;2023-06-04T11:26:29;2.00;;;0.90;;
41799;SDS011;27468;47.460;19.034;2023-06-04T11:29:07;1.17;;;0.80;;
41799;SDS011;27468;47.460;19.034;2023-06-04T11:31:43;4.82;;;0.98;;
41799;SDS011;27468;47.460;19.034;2023-06-04T11:34:10;1.77;;;1.15;;
41799;SDS011;27468;47.460;19.034;2023-06-04T11:36:46;2.22;;;1.08;;
41799;SDS011;27468;47.460;19.034;2023-06-04T11:39:14;1.90;;;0.85;;
41799;SDS011;27468;47.460;19.034;2023-06-04T11:41:40;1.35;;;0.98;;
41799;SDS011;27468;47.460;19.034;2023-06-04T11:44:07;1.67;;;1.00;;
41799;SDS011;27468;47.460;19.034;2023-06-04T11:46:34;1.02;;;0.80;;
41799;SDS011;27468;47.460;19.034;2023-06-04T11:49:00;1.00;;;0.80;;
41799;SDS011;27468;47.460;19.034;2023-06-04T11:51:27;1.92;;;1.42;;
41799;SDS011;27468;47.460;19.034;2023-06-04T11:53:53;1.80;;;1.00;;
41799;SDS011;27468;47.460;19.034;2023-06-04T11:56:20;2.60;;;0.93;;
41799;SDS011;27468;47.460;19.034;2023-06-04T11:58:46;1.88;;;1.00;;
41799;SDS011;27468;47.460;19.034;2023-06-04T12:01:12;1.85;;;1.00;;
41799;SDS011;27468;47.460;19.034;2023-06-04T12:03:41;2.05;;;1.00;;
41799;SDS011;27468;47.460;19.034;2023-06-04T12:08:44;1.52;;;0.90;;
41799;SDS011;27468;47.460;19.034;2023-06-04T12:11:10;2.75;;;1.05;;
41799;SDS011;27468;47.460;19.034;2023-06-04T12:13:45;1.63;;;0.88;;
41799;SDS011;27468;47.460;19.034;2023-06-04T12:16:13;1.27;;;0.93;;
41799;SDS011;27468;47.460;19.034;2023-06-04T12:18:39;1.00;;;0.88;;
41799;SDS011;27468;47.460;19.034;2023-06-04T12:21:05;2.15;;;1.20;;
41799;SDS011;27468;47.460;19.034;2023-06-04T12:24:05;1.73;;;1.00;;
41799;SDS011;27468;47.460;19.034;2023-06-04T12:26:31;1.63;;;1.15;;
41799;SDS011;27468;47.460;19.034;2023-06-04T12:29:02;1.52;;;1.20;;
41799;SDS011;27468;47.460;19.034;2023-06-04T12:31:32;2.58;;;1.00;;
41799;SDS011;27468;47.460;19.034;2023-06-04T12:33:58;1.33;;;0.80;;
41799;SDS011;27468;47.460;19.034;2023-06-04T12:36:25;2.60;;;1.40;;
41799;SDS011;27468;47.460;19.034;2023-06-04T12:38:50;2.03;;;1.08;;
41799;SDS011;27468;47.460;19.034;2023-06-04T12:41:16;1.20;;;0.90;;
41799;SDS011;27468;47.460;19.034;2023-06-04T12:43:41;1.13;;;0.80;;
41799;SDS011;27468;47.460;19.034;2023-06-04T12:46:07;1.48;;;1.00;;
41799;SDS011;27468;47.460;19.034;2023-06-04T12:48:32;3.13;;;1.60;;
41799;SDS011;27468;47.460;19.034;2023-06-04T12:50:58;2.60;;;1.33;;
41799;SDS011;27468;47.460;19.034;2023-06-04T12:53:23;3.00;;;1.20;;
41799;SDS011;27468;47.460;19.034;2023-06-04T12:55:49;2.45;;;1.30;;
41799;SDS011;27468;47.460;19.034;2023-06-04T12:58:15;2.75;;;1.33;;
41799;SDS011;27468;47.460;19.034;2023-06-04T13:00:42;1.73;;;1.02;;
41799;SDS011;27468;47.460;19.034;2023-06-04T13:03:07;3.83;;;0.80;;
41799;SDS011;27468;47.460;19.034;2023-06-04T13:05:34;1.88;;;0.90;;
41799;SDS011;27468;47.460;19.034;2023-06-04T13:08:01;1.83;;;1.15;;
41799;SDS011;27468;47.460;19.034;2023-06-04T13:10:27;1.52;;;0.95;;
41799;SDS011;27468;47.460;19.034;2023-06-04T13:12:52;2.10;;;1.30;;
41799;SDS011;27468;47.460;19.034;2023-06-04T13:15:18;1.63;;;1.00;;
41799;SDS011;27468;47.460;19.034;2023-06-04T13:17:43;1.10;;;1.00;;
41799;SDS011;27468;47.460;19.034;2023-06-04T13:20:09;1.95;;;0.98;;
41799;SDS011;27468;47.460;19.034;2023-06-04T13:22:35;1.95;;;1.27;;
41799;SDS011;27468;47.460;19.034;2023-06-04T13:25:00;1.98;;;1.15;;
41799;SDS011;27468;47.460;19.034;2023-06-04T13:27:26;1.98;;;1.08;;
41799;SDS011;27468;47.460;19.034;2023-06-04T13:29:51;2.55;;;1.35;;
41799;SDS011;27468;47.460;19.034;2023-06-04T13:32:17;2.05;;;1.17;;
41799;SDS011;27468;47.460;19.034;2023-06-04T13:34:42;2.35;;;1.10;;
41799;SDS011;27468;47.460;19.034;2023-06-04T13:37:08;2.25;;;1.13;;
41799;SDS011;27468;47.460;19.034;2023-06-04T13:39:36;1.50;;;1.02;;
41799;SDS011;27468;47.460;19.034;2023-06-04T13:42:01;1.92;;;1.35;;
41799;SDS011;27468;47.460;19.034;2023-06-04T13:44:26;2.72;;;1.60;;
41799;SDS011;27468;47.460;19.034;2023-06-04T13:46:53;1.70;;;1.00;;
41799;SDS011;27468;47.460;19.034;2023-06-04T13:49:19;1.88;;;1.23;;
41799;SDS011;27468;47.460;19.034;2023-06-04T13:51:45;2.80;;;1.80;;
41799;SDS011;27468;47.460;19.034;2023-06-04T13:54:10;1.85;;;1.60;;
41799;SDS011;27468;47.460;19.034;2023-06-04T13:56:36;2.70;;;1.48;;
41799;SDS011;27468;47.460;19.034;2023-06-04T13:59:01;1.70;;;1.42;;
41799;SDS011;27468;47.460;19.034;2023-06-04T14:01:27;2.05;;;1.40;;
41799;SDS011;27468;47.460;19.034;2023-06-04T14:03:52;1.58;;;1.20;;
41799;SDS011;27468;47.460;19.034;2023-06-04T14:06:18;2.35;;;1.55;;
41799;SDS011;27468;47.460;19.034;2023-06-04T14:08:43;1.80;;;1.52;;
41799;SDS011;27468;47.460;19.034;2023-06-04T14:11:09;2.25;;;1.40;;
41799;SDS011;27468;47.460;19.034;2023-06-04T14:13:35;1.77;;;1.42;;
41799;SDS011;27468;47.460;19.034;2023-06-04T14:16:02;2.47;;;1.48;;
41799;SDS011;27468;47.460;19.034;2023-06-04T14:18:29;2.83;;;1.25;;
41799;SDS011;27468;47.460;19.034;2023-06-04T14:20:54;2.35;;;1.30;;
41799;SDS011;27468;47.460;19.034;2023-06-04T14:23:20;4.00;;;1.45;;
41799;SDS011;27468;47.460;19.034;2023-06-04T14:25:45;1.60;;;1.40;;
41799;SDS011;27468;47.460;19.034;2023-06-04T14:28:11;1.80;;;1.33;;
41799;SDS011;27468;47.460;19.034;2023-06-04T14:30:36;2.88;;;1.35;;
41799;SDS011;27468;47.460;19.034;2023-06-04T14:33:01;2.78;;;1.75;;
41799;SDS011;27468;47.460;19.034;2023-06-04T14:35:27;2.67;;;1.67;;
41799;SDS011;27468;47.460;19.034;2023-06-04T14:37:52;2.78;;;1.63;;
41799;SDS011;27468;47.460;19.034;2023-06-04T14:40:18;1.27;;;1.10;;